createdAt,value
2023-01-29T22:15:50.184Z,43.0
2023-01-29T22:16:11.879Z,42.2
2023-01-29T22:17:05.083Z,40.6
2023-01-29T22:18:04.248Z,41.3
2023-01-29T22:19:04.200Z,41.4
2023-01-29T22:20:04.251Z,41.3
2023-01-29T22:21:04.270Z,41.3
2023-01-29T22:22:04.233Z,41.3
2023-01-29T22:23:04.195Z,41.2
2023-01-29T22:24:04.282Z,41.3
2023-01-29T22:25:04.205Z,41.2
2023-01-29T22:26:04.247Z,41.2
2023-01-29T22:27:04.232Z,41.2
2023-01-29T22:28:05.451Z,41.1
2023-01-29T22:29:04.199Z,41.2
2023-01-29T22:30:04.225Z,41.2
2023-01-29T22:31:04.313Z,41.2
2023-01-29T22:32:04.348Z,41.2
2023-01-29T22:33:04.273Z,41.2
2023-01-29T22:34:04.240Z,41.2
2023-01-29T22:35:04.209Z,41.2
2023-01-29T22:36:04.225Z,41.2
2023-01-29T22:37:04.209Z,41.2
2023-01-29T22:38:04.241Z,41.2
2023-01-29T22:39:04.234Z,41.2
2023-01-29T22:40:04.222Z,41.2
2023-01-29T22:41:04.222Z,41.2
2023-01-29T22:42:04.291Z,41.2
2023-01-29T22:43:04.226Z,41.2
2023-01-29T22:44:04.243Z,41.2
2023-01-29T22:45:04.241Z,41.1
2023-01-29T22:46:04.293Z,41.2
2023-01-29T22:47:04.194Z,41.2
2023-01-29T22:48:04.955Z,41.2
2023-01-29T22:49:04.227Z,41.2
2023-01-29T22:50:04.417Z,41.3
2023-01-29T22:51:04.257Z,41.3
2023-01-29T22:52:04.225Z,41.3
2023-01-29T22:53:04.210Z,41.4
2023-01-29T22:54:04.243Z,41.4
2023-01-29T22:55:04.206Z,41.5
2023-01-29T22:56:04.234Z,41.5
2023-01-29T22:57:04.385Z,41.5
2023-01-29T22:58:04.249Z,41.5
2023-01-29T22:59:04.220Z,41.6
2023-01-29T23:00:04.235Z,41.6
2023-01-29T23:01:04.214Z,41.7
2023-01-29T23:02:04.250Z,41.7
2023-01-29T23:03:04.246Z,41.8
2023-01-29T23:04:04.237Z,41.9
2023-01-29T23:05:04.222Z,41.9
2023-01-29T23:06:04.242Z,42.0
2023-01-29T23:07:04.215Z,42.0
2023-01-29T23:08:04.247Z,42.1
2023-01-29T23:09:04.244Z,42.2
2023-01-29T23:10:04.342Z,42.2
2023-01-29T23:11:04.210Z,42.3
2023-01-29T23:12:04.233Z,42.4
2023-01-29T23:13:04.214Z,42.4
2023-01-29T23:14:04.241Z,42.5
2023-01-29T23:16:11.146Z,42.5
2023-01-29T23:16:15.285Z,44.5
2023-01-29T23:17:04.253Z,42.9
2023-01-29T23:18:04.263Z,42.8
2023-01-29T23:19:04.229Z,42.8
2023-01-29T23:20:04.241Z,42.8
2023-01-29T23:21:04.244Z,42.9
2023-01-29T23:22:04.272Z,43.0
2023-01-29T23:23:04.234Z,43.0
2023-01-29T23:24:04.250Z,43.0
2023-01-29T23:25:04.239Z,43.1
2023-01-29T23:26:04.241Z,43.3
2023-01-29T23:27:04.282Z,43.4
2023-01-29T23:28:04.242Z,43.4
2023-01-29T23:29:04.249Z,43.4
2023-01-29T23:30:04.249Z,43.4
2023-01-29T23:31:04.346Z,43.4
2023-01-29T23:32:04.247Z,43.4
2023-01-29T23:33:04.270Z,43.4
2023-01-29T23:34:04.244Z,43.5
2023-01-29T23:35:04.225Z,43.5
2023-01-29T23:36:04.245Z,43.6
2023-01-29T23:37:04.241Z,43.6
2023-01-29T23:38:04.260Z,43.7
2023-01-29T23:39:11.336Z,43.8
2023-01-29T23:40:04.087Z,43.8
2023-01-29T23:41:04.065Z,43.8
2023-01-29T23:42:04.078Z,43.9
2023-01-29T23:43:04.062Z,43.9
2023-01-29T23:44:04.085Z,43.9
2023-01-29T23:45:04.099Z,43.9
2023-01-29T23:46:04.102Z,43.9
2023-01-29T23:47:04.057Z,44.0
2023-01-29T23:48:04.079Z,44.0
2023-01-29T23:49:04.070Z,44.1
2023-01-29T23:50:04.095Z,44.1
2023-01-29T23:51:04.130Z,44.2
2023-01-29T23:52:04.096Z,44.2
2023-01-29T23:53:04.110Z,44.2
2023-01-29T23:54:04.088Z,44.1
2023-01-29T23:55:04.072Z,44.2
2023-01-29T23:56:04.083Z,44.2
2023-01-29T23:57:04.987Z,44.2
2023-01-29T23:58:04.093Z,44.2
2023-01-29T23:59:04.061Z,44.2
